Time;durP1;ratioP1;P1;durP2;ratioP2;P2;SDS_P1;SDS_P2;PMS_P1;PMS_P2;Temp;Humidity;BMP_temperature;BMP_pressure;BME280_temperature;BME280_humidity;BME280_pressure;Samples;Min_cycle;Max_cycle;Signal;HPM_P1;HPM_P2
2023/09/27 00:00:40;;;;;;;10.23;6.57;;;14.40;83.00;;;;;;5013334;28;20427;-75
2023/09/27 00:03:06;;;;;;;10.50;7.43;;;14.20;83.70;;;;;;5012472;28;20562;-76
2023/09/27 00:05:32;;;;;;;11.43;6.97;;;14.10;84.10;;;;;;5010024;28;20294;-75
2023/09/27 00:07:57;;;;;;;12.20;7.73;;;14.10;84.30;;;;;;5012418;28;21002;-74
2023/09/27 00:10:23;;;;;;;11.20;7.80;;;14.10;84.40;;;;;;5013028;28;20305;-75
2023/09/27 00:12:49;;;;;;;13.90;8.13;;;14.00;84.30;;;;;;5008179;28;20425;-75
2023/09/27 00:15:15;;;;;;;11.13;7.70;;;13.90;84.60;;;;;;5010536;28;20222;-76
2023/09/27 00:17:43;;;;;;;9.80;6.50;;;13.90;84.90;;;;;;5005794;28;20194;-75
2023/09/27 00:20:13;;;;;;;11.80;6.70;;;14.00;85.00;;;;;;5010901;28;20491;-76
2023/09/27 00:22:39;;;;;;;11.40;7.57;;;14.00;84.30;;;;;;5008463;28;20441;-75
2023/09/27 00:25:07;;;;;;;10.50;6.77;;;13.80;84.40;;;;;;5008248;28;20461;-74
2023/09/27 00:27:34;;;;;;;12.30;7.33;;;13.70;85.00;;;;;;5007252;28;20421;-74
2023/09/27 00:30:00;;;;;;;13.33;7.67;;;13.70;85.30;;;;;;4994838;28;20439;-74
2023/09/27 00:32:26;;;;;;;11.70;8.00;;;13.70;85.60;;;;;;4997268;28;20420;-75
2023/09/27 00:34:51;;;;;;;10.17;7.37;;;13.70;85.60;;;;;;5005216;28;20202;-75
2023/09/27 00:37:17;;;;;;;12.43;7.53;;;13.70;85.70;;;;;;5003837;28;20193;-76
2023/09/27 00:39:43;;;;;;;10.90;7.13;;;13.70;85.70;;;;;;4998663;28;20202;-76
2023/09/27 00:42:08;;;;;;;12.93;8.23;;;13.70;85.90;;;;;;4994814;28;20496;-76
2023/09/27 00:44:34;;;;;;;12.40;7.07;;;13.70;86.20;;;;;;5010842;28;20178;-76
2023/09/27 00:47:01;;;;;;;14.70;7.30;;;13.80;86.50;;;;;;5007449;28;20284;-76
2023/09/27 00:49:27;;;;;;;10.33;6.80;;;14.00;86.00;;;;;;5009829;28;20765;-75
2023/09/27 00:51:53;;;;;;;14.17;7.33;;;13.90;85.60;;;;;;5010974;28;20429;-76
2023/09/27 00:54:19;;;;;;;11.90;6.80;;;13.90;85.70;;;;;;5011375;28;20217;-76
2023/09/27 00:56:47;;;;;;;9.90;6.47;;;13.90;85.60;;;;;;5006155;28;20930;-76
2023/09/27 00:59:14;;;;;;;16.20;7.60;;;14.00;85.60;;;;;;5008414;28;20205;-76
2023/09/27 01:01:41;;;;;;;12.70;7.50;;;14.00;85.60;;;;;;5008150;28;20602;-77
2023/09/27 01:04:08;;;;;;;11.60;7.03;;;14.00;85.20;;;;;;5008536;28;20500;-76
2023/09/27 01:06:34;;;;;;;16.03;6.60;;;14.10;85.00;;;;;;5003583;28;20444;-75
2023/09/27 01:08:59;;;;;;;8.43;6.40;;;14.10;84.90;;;;;;5008263;28;20513;-76
2023/09/27 01:11:25;;;;;;;14.30;8.47;;;14.10;84.70;;;;;;5010274;28;20964;-77
2023/09/27 01:13:51;;;;;;;11.10;7.20;;;14.00;84.70;;;;;;5018249;28;20207;-74
2023/09/27 01:16:18;;;;;;;11.83;6.93;;;14.00;84.60;;;;;;5006256;28;20465;-74
2023/09/27 01:18:44;;;;;;;8.80;6.30;;;14.00;84.60;;;;;;5010851;28;20178;-75
2023/09/27 01:21:09;;;;;;;12.93;7.43;;;14.10;84.40;;;;;;5022079;28;20515;-76
2023/09/27 01:23:38;;;;;;;8.33;5.50;;;14.10;84.00;;;;;;4998711;28;20554;-76
2023/09/27 01:26:06;;;;;;;16.33;6.77;;;14.00;83.80;;;;;;5006652;28;20233;-76
2023/09/27 01:28:33;;;;;;;11.63;7.10;;;14.00;84.00;;;;;;5010218;28;20437;-76
2023/09/27 01:30:58;;;;;;;9.37;6.60;;;13.90;84.10;;;;;;5014554;28;20495;-76
2023/09/27 01:33:25;;;;;;;11.57;7.00;;;13.90;84.30;;;;;;5016755;28;20464;-76
2023/09/27 01:35:51;;;;;;;10.00;6.77;;;13.90;84.10;;;;;;5013304;28;20229;-76
2023/09/27 01:38:17;;;;;;;15.23;7.37;;;13.70;84.30;;;;;;5018616;28;20429;-75
2023/09/27 01:40:44;;;;;;;15.50;7.23;;;13.70;84.60;;;;;;5017697;28;20982;-75
2023/09/27 01:43:11;;;;;;;11.63;7.07;;;13.70;84.70;;;;;;5011390;28;20209;-76
2023/09/27 01:45:38;;;;;;;9.67;6.63;;;13.80;84.90;;;;;;5006811;28;20469;-76
2023/09/27 01:48:04;;;;;;;8.07;5.80;;;13.80;85.00;;;;;;5009129;28;20428;-76
2023/09/27 01:50:33;;;;;;;9.53;6.87;;;13.90;84.90;;;;;;5005963;28;20421;-77
2023/09/27 01:52:59;;;;;;;12.80;6.87;;;13.80;84.70;;;;;;4993754;28;20440;-76
2023/09/27 01:55:25;;;;;;;14.10;8.60;;;13.90;84.60;;;;;;5005103;28;20468;-76
2023/09/27 01:57:52;;;;;;;8.80;6.83;;;13.80;84.30;;;;;;4999462;28;20213;-76
2023/09/27 02:00:19;;;;;;;12.33;7.80;;;13.60;84.40;;;;;;5007834;28;20468;-76
2023/09/27 02:02:48;;;;;;;12.17;7.40;;;13.60;84.90;;;;;;5015191;28;20431;-78
2023/09/27 02:05:15;;;;;;;11.43;6.60;;;13.50;85.20;;;;;;5010905;28;20477;-76
2023/09/27 02:07:41;;;;;;;14.23;8.03;;;13.60;85.20;;;;;;5011717;28;20475;-77
2023/09/27 02:10:08;;;;;;;8.63;6.10;;;13.60;85.20;;;;;;5003163;28;20432;-77
2023/09/27 02:12:34;;;;;;;13.80;7.67;;;13.60;85.30;;;;;;5008061;28;20421;-76
2023/09/27 02:15:00;;;;;;;8.07;5.67;;;13.50;85.60;;;;;;5004237;28;20540;-76
2023/09/27 02:17:25;;;;;;;12.27;6.97;;;13.50;85.70;;;;;;5006491;28;20436;-76
2023/09/27 02:19:51;;;;;;;8.63;6.57;;;13.60;85.60;;;;;;5014359;28;20213;-76
2023/09/27 02:22:18;;;;;;;10.97;7.13;;;13.60;85.30;;;;;;5013742;28;20210;-76
2023/09/27 02:24:44;;;;;;;11.07;6.70;;;13.50;85.50;;;;;;5013511;28;20412;-73
2023/09/27 02:27:10;;;;;;;10.33;6.40;;;13.40;85.60;;;;;;5011047;28;21260;-76
2023/09/27 02:29:37;;;;;;;10.03;6.20;;;13.60;85.60;;;;;;4999253;28;20424;-77
2023/09/27 02:32:04;;;;;;;11.50;6.70;;;13.60;85.50;;;;;;5019433;28;20464;-76
2023/09/27 02:34:30;;;;;;;9.50;6.27;;;13.60;85.20;;;;;;5018123;28;20461;-75
2023/09/27 02:36:55;;;;;;;11.30;6.03;;;13.60;85.30;;;;;;5019288;28;20486;-75
2023/09/27 02:39:21;;;;;;;9.53;6.50;;;13.70;85.20;;;;;;5021734;28;20678;-76
2023/09/27 02:41:46;;;;;;;7.97;5.83;;;13.70;84.90;;;;;;5021468;28;20182;-76
2023/09/27 02:44:12;;;;;;;7.90;5.67;;;13.60;84.90;;;;;;5019445;28;20184;-77
2023/09/27 02:46:40;;;;;;;8.27;5.73;;;13.70;85.00;;;;;;5018343;28;20205;-77
2023/09/27 02:49:05;;;;;;;11.50;6.87;;;13.70;85.00;;;;;;5019431;28;20210;-77
2023/09/27 02:51:34;;;;;;;10.17;6.63;;;13.70;85.00;;;;;;5015018;28;21038;-76
2023/09/27 02:54:00;;;;;;;10.90;6.83;;;13.60;84.90;;;;;;5017405;28;20216;-76
2023/09/27 02:56:25;;;;;;;11.03;5.90;;;13.50;85.00;;;;;;4999341;28;20483;-75
2023/09/27 02:58:51;;;;;;;9.77;6.70;;;13.50;85.20;;;;;;5012266;28;21284;-74
2023/09/27 03:01:17;;;;;;;10.53;7.30;;;13.50;84.90;;;;;;5012874;28;20586;-75
2023/09/27 03:03:42;;;;;;;10.07;6.30;;;13.40;85.00;;;;;;5007186;28;20178;-75
2023/09/27 03:06:14;;;;;;;9.80;6.40;;;13.40;85.20;;;;;;5011044;28;20209;-74
2023/09/27 03:08:43;;;;;;;9.10;6.57;;;13.50;85.30;;;;;;5015094;28;20945;-74
2023/09/27 03:11:09;;;;;;;9.50;5.93;;;13.50;85.30;;;;;;5019933;28;20436;-74
2023/09/27 03:13:36;;;;;;;10.00;6.13;;;13.50;85.30;;;;;;5019617;28;20429;-76
2023/09/27 03:16:03;;;;;;;10.07;6.80;;;13.50;85.50;;;;;;5015842;28;20499;-74
2023/09/27 03:18:28;;;;;;;10.60;6.00;;;13.60;85.30;;;;;;5017933;28;20421;-76
2023/09/27 03:20:54;;;;;;;12.03;6.70;;;13.50;85.20;;;;;;5019077;28;20594;-74
2023/09/27 03:23:20;;;;;;;8.80;6.73;;;13.40;85.20;;;;;;5011471;28;20196;-73
2023/09/27 03:25:48;;;;;;;11.07;6.87;;;13.40;85.00;;;;;;5007020;28;20240;-75
2023/09/27 03:28:14;;;;;;;13.37;7.70;;;13.20;84.90;;;;;;5012123;28;20185;-76
2023/09/27 03:30:40;;;;;;;11.60;6.53;;;13.10;85.20;;;;;;5014129;28;20438;-76
2023/09/27 03:33:06;;;;;;;11.37;6.57;;;13.00;85.50;;;;;;5014549;28;20185;-76
2023/09/27 03:35:32;;;;;;;10.70;6.80;;;13.00;85.90;;;;;;5010745;28;20221;-75
2023/09/27 03:37:57;;;;;;;9.97;7.57;;;13.00;85.90;;;;;;5012724;28;20425;-74
2023/09/27 03:40:23;;;;;;;10.70;6.83;;;13.00;86.00;;;;;;5005883;28;20648;-76
2023/09/27 03:42:49;;;;;;;9.80;7.20;;;13.00;86.00;;;;;;5011769;28;20179;-74
2023/09/27 03:45:16;;;;;;;10.20;6.60;;;13.00;86.30;;;;;;5005436;28;20462;-74
2023/09/27 03:47:45;;;;;;;11.50;7.40;;;13.00;86.50;;;;;;5011034;28;20543;-74
2023/09/27 03:50:12;;;;;;;8.70;6.80;;;13.00;86.60;;;;;;5011460;28;20440;-75
2023/09/27 03:52:41;;;;;;;9.73;6.53;;;13.00;86.60;;;;;;5009946;28;20448;-75
2023/09/27 03:55:11;;;;;;;9.90;6.57;;;13.10;86.80;;;;;;5005424;28;20471;-75
2023/09/27 03:57:37;;;;;;;11.03;6.60;;;13.10;86.80;;;;;;5013675;28;20435;-75
2023/09/27 04:00:13;;;;;;;11.03;6.77;;;13.20;86.60;;;;;;5007278;28;21123;-74
2023/09/27 04:02:40;;;;;;;12.23;7.83;;;13.20;86.20;;;;;;4998071;28;20440;-75
2023/09/27 04:05:06;;;;;;;13.90;7.60;;;13.10;85.70;;;;;;5000900;28;20488;-74
2023/09/27 04:07:32;;;;;;;10.67;7.20;;;13.10;85.90;;;;;;5008525;28;20435;-74
2023/09/27 04:09:58;;;;;;;9.67;6.80;;;13.00;86.00;;;;;;5006004;28;20422;-75
2023/09/27 04:12:23;;;;;;;14.47;6.93;;;13.00;86.20;;;;;;5008918;28;20224;-75
2023/09/27 04:14:49;;;;;;;13.23;7.50;;;13.10;86.20;;;;;;5003919;28;20225;-75
2023/09/27 04:17:15;;;;;;;13.30;7.63;;;13.00;86.00;;;;;;5005476;28;20324;-75
2023/09/27 04:19:40;;;;;;;9.60;6.60;;;13.00;86.30;;;;;;5008021;28;20232;-74
2023/09/27 04:22:06;;;;;;;10.63;7.23;;;13.10;86.20;;;;;;5002342;28;20182;-73
2023/09/27 04:24:31;;;;;;;10.73;6.80;;;13.10;86.00;;;;;;5016219;28;20206;-73
2023/09/27 04:26:58;;;;;;;10.73;7.83;;;13.10;85.70;;;;;;5008302;28;20195;-76
2023/09/27 04:29:24;;;;;;;12.00;7.70;;;13.10;85.50;;;;;;5017565;28;20254;-74
2023/09/27 04:31:49;;;;;;;11.23;7.63;;;13.00;85.70;;;;;;5017123;28;20440;-75
2023/09/27 04:34:16;;;;;;;13.60;8.10;;;12.90;85.90;;;;;;4997879;28;20680;-75
2023/09/27 04:36:42;;;;;;;10.63;7.00;;;12.90;86.00;;;;;;5008759;28;20202;-75
2023/09/27 04:39:11;;;;;;;12.27;7.00;;;12.90;86.00;;;;;;5010903;28;20417;-76
2023/09/27 04:41:36;;;;;;;11.77;7.30;;;12.80;86.20;;;;;;5012190;28;20205;-76
2023/09/27 04:44:02;;;;;;;12.10;7.83;;;12.80;86.30;;;;;;5011819;28;20945;-75
2023/09/27 04:46:28;;;;;;;11.63;7.40;;;12.80;86.30;;;;;;4995160;28;20209;-76
2023/09/27 04:48:53;;;;;;;14.90;7.80;;;12.80;86.50;;;;;;5010254;28;20194;-76
2023/09/27 04:51:19;;;;;;;10.83;7.03;;;12.80;86.30;;;;;;4998946;28;20190;-75
2023/09/27 04:53:45;;;;;;;14.17;7.30;;;12.80;86.30;;;;;;5018729;28;20295;-74
2023/09/27 04:56:11;;;;;;;11.90;7.30;;;12.80;86.30;;;;;;5015227;28;20269;-74
2023/09/27 04:58:38;;;;;;;12.87;7.57;;;12.80;86.50;;;;;;5021419;28;20213;-78
2023/09/27 05:01:05;;;;;;;11.80;7.53;;;12.80;86.50;;;;;;5022531;28;20460;-80
2023/09/27 05:03:31;;;;;;;11.10;7.07;;;12.80;86.50;;;;;;5017352;28;20484;-76
2023/09/27 05:05:57;;;;;;;11.60;7.30;;;12.90;86.50;;;;;;5011580;28;20812;-78
2023/09/27 05:08:24;;;;;;;9.37;6.90;;;12.90;86.60;;;;;;5012616;28;20423;-78
2023/09/27 05:10:49;;;;;;;13.03;7.13;;;12.90;86.80;;;;;;5011482;28;20652;-77
2023/09/27 05:13:16;;;;;;;10.10;6.00;;;12.90;86.90;;;;;;5015291;28;20460;-77
2023/09/27 05:15:42;;;;;;;7.80;6.50;;;12.90;86.90;;;;;;5015155;28;20528;-78
2023/09/27 05:18:07;;;;;;;14.67;7.30;;;13.00;86.90;;;;;;5016410;28;20421;-75
2023/09/27 05:20:35;;;;;;;13.77;7.30;;;13.00;86.90;;;;;;5013904;28;20217;-75
2023/09/27 05:23:01;;;;;;;13.50;8.10;;;12.90;86.80;;;;;;5014887;28;20185;-75
2023/09/27 05:25:26;;;;;;;12.10;6.70;;;12.90;86.80;;;;;;5010242;28;20437;-74
2023/09/27 05:27:52;;;;;;;12.63;7.90;;;12.90;86.90;;;;;;5010595;28;20228;-75
2023/09/27 05:30:21;;;;;;;10.60;7.00;;;12.90;87.00;;;;;;5011142;28;20190;-75
2023/09/27 05:32:47;;;;;;;10.73;6.50;;;12.90;87.00;;;;;;5012015;28;20512;-74
2023/09/27 05:35:13;;;;;;;10.90;7.63;;;12.90;87.10;;;;;;5010144;28;20469;-75
2023/09/27 05:37:44;;;;;;;12.97;8.40;;;13.00;87.00;;;;;;5014351;28;20447;-75
2023/09/27 05:40:11;;;;;;;11.87;7.27;;;12.90;86.80;;;;;;5014140;28;20984;-76
2023/09/27 05:42:38;;;;;;;14.90;8.67;;;12.80;87.00;;;;;;5013080;28;20428;-75
2023/09/27 05:45:04;;;;;;;11.27;7.40;;;12.90;87.10;;;;;;5003063;28;21030;-74
2023/09/27 05:47:30;;;;;;;11.97;7.73;;;12.90;87.10;;;;;;5013323;28;20952;-74
2023/09/27 05:50:01;;;;;;;17.53;8.47;;;13.00;86.80;;;;;;5013672;28;20427;-74
2023/09/27 05:52:27;;;;;;;13.03;8.90;;;12.90;86.50;;;;;;5010685;28;20508;-77
2023/09/27 05:54:52;;;;;;;11.37;8.20;;;12.90;86.30;;;;;;5008602;28;20174;-74
2023/09/27 05:57:18;;;;;;;14.53;8.57;;;12.90;86.50;;;;;;5009503;28;20185;-76
2023/09/27 05:59:45;;;;;;;12.33;7.70;;;13.00;86.30;;;;;;5009892;28;20213;-75
2023/09/27 06:02:16;;;;;;;13.90;8.40;;;13.10;85.70;;;;;;5008297;28;20567;-75
2023/09/27 06:04:46;;;;;;;12.50;8.17;;;13.00;85.50;;;;;;5010755;28;20413;-75
2023/09/27 06:07:14;;;;;;;11.60;8.00;;;13.00;85.50;;;;;;5007770;28;20432;-73
2023/09/27 06:09:42;;;;;;;16.73;9.17;;;13.00;85.20;;;;;;5010215;28;20436;-75
2023/09/27 06:12:12;;;;;;;15.27;8.90;;;13.00;85.20;;;;;;5013977;28;20429;-74
2023/09/27 06:14:38;;;;;;;12.07;8.17;;;13.00;85.50;;;;;;5011096;28;20424;-74
2023/09/27 06:17:05;;;;;;;21.10;8.80;;;13.00;85.90;;;;;;5010095;28;20440;-75
2023/09/27 06:19:32;;;;;;;16.53;9.10;;;13.00;85.90;;;;;;5014276;28;20432;-74
2023/09/27 06:21:58;;;;;;;14.57;9.20;;;13.10;85.60;;;;;;5013305;28;20429;-74
2023/09/27 06:24:26;;;;;;;12.47;8.37;;;13.10;85.50;;;;;;5009046;28;20415;-74
2023/09/27 06:26:53;;;;;;;14.80;8.40;;;13.00;85.50;;;;;;5007512;28;20297;-74
2023/09/27 06:29:19;;;;;;;14.30;9.30;;;13.10;85.60;;;;;;5005035;28;20937;-73
2023/09/27 06:31:47;;;;;;;13.77;8.87;;;13.10;85.50;;;;;;5008077;28;20425;-75
2023/09/27 06:34:14;;;;;;;17.33;9.33;;;13.30;85.50;;;;;;5012120;28;20441;-75
2023/09/27 06:36:42;;;;;;;13.80;8.80;;;13.30;84.90;;;;;;5007267;28;20461;-74
2023/09/27 06:39:12;;;;;;;15.67;8.93;;;13.30;84.70;;;;;;5011970;28;20421;-75
2023/09/27 06:41:39;;;;;;;19.13;10.87;;;13.20;84.70;;;;;;5008309;28;20547;-76
2023/09/27 06:44:06;;;;;;;14.83;8.37;;;13.10;84.70;;;;;;5001342;28;20437;-74
2023/09/27 06:46:33;;;;;;;15.40;10.00;;;13.10;85.20;;;;;;5006437;28;21054;-76
2023/09/27 06:48:59;;;;;;;11.33;8.40;;;13.10;85.30;;;;;;5009952;28;20428;-75
2023/09/27 06:51:24;;;;;;;19.70;10.40;;;13.20;85.70;;;;;;5000634;28;20417;-75
2023/09/27 06:53:50;;;;;;;15.33;9.80;;;13.30;85.70;;;;;;5011717;28;20663;-74
2023/09/27 06:56:16;;;;;;;12.67;9.00;;;13.40;85.70;;;;;;5006427;28;20230;-76
2023/09/27 06:58:41;;;;;;;16.97;10.33;;;13.40;85.60;;;;;;5010548;28;20205;-76
2023/09/27 07:01:07;;;;;;;15.77;11.00;;;13.50;85.60;;;;;;5013013;28;20221;-76
2023/09/27 07:03:36;;;;;;;17.37;10.10;;;13.60;85.20;;;;;;5013568;28;20190;-75
2023/09/27 07:06:02;;;;;;;14.37;10.10;;;13.70;85.00;;;;;;5010313;28;20216;-74
2023/09/27 07:08:28;;;;;;;14.00;8.70;;;13.80;84.90;;;;;;5013381;28;20899;-75
2023/09/27 07:10:54;;;;;;;15.73;9.90;;;13.90;84.40;;;;;;5013834;28;20428;-75
2023/09/27 07:13:20;;;;;;;14.77;9.70;;;13.90;84.30;;;;;;5014189;28;20421;-74
2023/09/27 07:15:45;;;;;;;14.03;9.17;;;13.80;84.30;;;;;;5006204;28;20568;-75
2023/09/27 07:18:12;;;;;;;18.20;10.57;;;13.90;84.40;;;;;;5011966;28;20186;-75
2023/09/27 07:20:40;;;;;;;12.10;9.23;;;14.00;84.10;;;;;;5008662;28;20208;-75
2023/09/27 07:23:07;;;;;;;17.50;9.40;;;14.00;84.10;;;;;;5013613;28;20420;-76
2023/09/27 07:25:37;;;;;;;15.50;9.47;;;14.10;84.10;;;;;;5009858;28;20788;-76
2023/09/27 07:28:04;;;;;;;13.73;9.67;;;14.30;83.80;;;;;;5010103;28;20434;-74
2023/09/27 07:30:35;;;;;;;16.20;10.17;;;14.40;83.40;;;;;;5022455;28;20461;-76
2023/09/27 07:33:11;;;;;;;15.80;10.10;;;14.40;83.10;;;;;;5022287;28;20496;-75
2023/09/27 07:35:41;;;;;;;13.03;9.00;;;14.40;83.10;;;;;;5014210;28;20487;-74
2023/09/27 07:38:08;;;;;;;15.70;9.80;;;14.30;83.30;;;;;;5019776;28;20429;-73
2023/09/27 07:40:34;;;;;;;14.43;9.97;;;14.40;83.60;;;;;;5023688;28;20468;-75
2023/09/27 07:42:59;;;;;;;14.20;9.67;;;14.50;83.70;;;;;;5034056;28;20433;-74
2023/09/27 07:45:30;;;;;;;16.77;9.20;;;14.60;83.40;;;;;;5023342;28;20265;-74
2023/09/27 07:47:56;;;;;;;13.87;9.23;;;14.80;83.10;;;;;;5028436;28;20244;-75
2023/09/27 07:50:26;;;;;;;16.40;10.07;;;14.90;82.80;;;;;;5016805;28;21490;-75
2023/09/27 07:52:54;;;;;;;13.13;10.00;;;15.00;82.40;;;;;;5015704;28;20439;-75
2023/09/27 07:55:21;;;;;;;14.60;9.83;;;15.10;82.20;;;;;;5013283;28;20492;-73
2023/09/27 07:57:47;;;;;;;19.07;10.70;;;15.10;82.20;;;;;;5002943;28;20437;-77
2023/09/27 08:00:16;;;;;;;17.03;10.67;;;15.20;81.90;;;;;;5002765;28;20495;-74
2023/09/27 08:02:43;;;;;;;21.70;9.87;;;15.20;81.70;;;;;;5013296;28;20432;-74
2023/09/27 08:05:14;;;;;;;14.90;10.07;;;15.40;81.40;;;;;;5008791;28;20619;-76
2023/09/27 08:07:40;;;;;;;15.00;10.10;;;15.50;81.20;;;;;;5012733;28;20424;-76
2023/09/27 08:10:07;;;;;;;14.47;9.40;;;15.60;80.90;;;;;;5012654;28;20434;-75
2023/09/27 08:12:34;;;;;;;15.27;10.23;;;15.60;80.50;;;;;;5011818;28;20417;-75
2023/09/27 08:15:00;;;;;;;17.40;9.20;;;15.70;80.30;;;;;;5013085;28;20433;-74
2023/09/27 08:17:26;;;;;;;16.50;9.50;;;15.80;80.00;;;;;;5014659;28;21015;-75
2023/09/27 08:19:52;;;;;;;14.93;9.30;;;15.90;79.70;;;;;;5016211;28;20474;-75
2023/09/27 08:22:19;;;;;;;17.03;11.03;;;16.00;79.50;;;;;;5014937;28;20436;-75
2023/09/27 08:24:44;;;;;;;27.50;9.33;;;16.00;79.20;;;;;;5014709;28;20495;-74
2023/09/27 08:27:11;;;;;;;16.33;10.33;;;16.10;78.90;;;;;;5011788;28;20469;-75
2023/09/27 08:29:36;;;;;;;17.53;9.60;;;16.20;78.30;;;;;;5011929;28;20498;-75
2023/09/27 08:32:04;;;;;;;17.83;9.53;;;16.30;78.00;;;;;;5010706;28;20196;-75
2023/09/27 08:34:30;;;;;;;14.50;8.27;;;16.30;77.60;;;;;;5010333;28;20302;-73
2023/09/27 08:36:56;;;;;;;13.27;9.60;;;16.30;77.60;;;;;;5006142;28;21126;-75
2023/09/27 08:39:22;;;;;;;12.00;8.23;;;16.40;77.70;;;;;;5010437;28;20588;-75
2023/09/27 08:41:47;;;;;;;16.00;8.83;;;16.50;77.40;;;;;;5007392;28;20210;-74
2023/09/27 08:44:13;;;;;;;12.07;8.37;;;16.60;77.40;;;;;;5008713;28;20181;-74
2023/09/27 08:46:40;;;;;;;9.70;7.73;;;16.70;77.10;;;;;;5004578;28;20210;-75
2023/09/27 08:49:08;;;;;;;14.13;8.37;;;16.70;76.70;;;;;;5007560;28;20472;-75
2023/09/27 08:51:38;;;;;;;13.20;8.30;;;16.70;76.80;;;;;;5011079;28;20894;-73
2023/09/27 08:54:03;;;;;;;12.60;7.67;;;16.80;76.70;;;;;;5000506;28;20425;-74
2023/09/27 08:56:30;;;;;;;14.00;8.40;;;17.00;76.50;;;;;;5007387;28;20464;-75
2023/09/27 08:58:57;;;;;;;14.47;8.00;;;17.00;76.40;;;;;;5014494;28;20236;-75
2023/09/27 09:01:24;;;;;;;18.33;8.27;;;17.20;75.70;;;;;;5011138;28;20479;-75
2023/09/27 09:03:51;;;;;;;15.80;8.57;;;17.30;75.40;;;;;;5013168;28;20426;-75
2023/09/27 09:06:18;;;;;;;12.50;8.00;;;17.50;74.90;;;;;;5007648;28;20502;-75
2023/09/27 09:08:44;;;;;;;11.40;7.23;;;17.60;74.60;;;;;;5012751;28;20791;-75
2023/09/27 09:11:13;;;;;;;10.97;7.73;;;17.70;74.00;;;;;;5013715;28;20791;-74
2023/09/27 09:14:22;;;;;;;14.93;7.17;;;17.90;73.30;;;;;;5013245;28;20418;-75
2023/09/27 09:16:54;;;;;;;14.20;7.63;;;18.00;73.30;;;;;;4896660;29;20933;-76
2023/09/27 09:19:24;;;;;;;13.93;7.87;;;18.10;72.70;;;;;;4899918;29;20443;-75
2023/09/27 09:22:09;;;;;;;23.07;9.07;;;18.30;72.30;;;;;;4906478;29;20463;-73
2023/09/27 09:24:40;;;;;;;16.90;7.37;;;18.40;72.00;;;;;;4905073;29;20589;-75
2023/09/27 09:27:14;;;;;;;14.13;7.60;;;18.50;71.80;;;;;;4900310;29;20920;-74
2023/09/27 09:29:44;;;;;;;11.27;7.37;;;18.60;71.60;;;;;;4901415;29;20438;-76
2023/09/27 09:32:10;;;;;;;13.20;7.50;;;18.80;71.10;;;;;;4909306;29;21076;-74
2023/09/27 09:34:47;;;;;;;13.87;6.40;;;18.90;70.80;;;;;;4907493;29;20974;-76
2023/09/27 09:37:23;;;;;;;13.90;7.40;;;19.00;70.40;;;;;;4896688;29;20306;-75
2023/09/27 09:39:51;;;;;;;9.97;6.23;;;19.20;69.70;;;;;;4900142;29;20549;-75
2023/09/27 09:42:34;;;;;;;13.73;6.93;;;19.40;69.50;;;;;;4901592;29;20522;-75
2023/09/27 09:45:01;;;;;;;11.03;6.50;;;19.50;68.90;;;;;;4889266;29;20496;-74
2023/09/27 09:47:30;;;;;;;9.23;6.60;;;19.70;68.50;;;;;;4896575;29;20466;-75
2023/09/27 09:49:55;;;;;;;11.80;6.83;;;19.70;68.30;;;;;;4922602;28;20437;-74
2023/09/27 09:52:29;;;;;;;9.10;5.83;;;19.80;68.20;;;;;;5014185;28;20434;-75
2023/09/27 09:54:57;;;;;;;8.83;5.57;;;19.90;68.20;;;;;;5010806;28;20181;-76
2023/09/27 09:57:36;;;;;;;13.77;6.63;;;20.00;67.70;;;;;;5010370;28;20806;-76
2023/09/27 10:00:16;;;;;;;15.90;7.23;;;20.00;67.70;;;;;;5012361;28;20499;-74
2023/09/27 10:02:49;;;;;;;10.83;6.73;;;20.10;67.90;;;;;;5011819;28;20428;-74
2023/09/27 10:05:17;;;;;;;11.27;6.40;;;20.20;67.70;;;;;;5011442;28;20466;-75
2023/09/27 10:07:44;;;;;;;9.67;6.70;;;20.20;67.70;;;;;;5014574;28;20433;-74
2023/09/27 10:10:13;;;;;;;9.07;6.97;;;20.40;67.20;;;;;;5015166;28;20847;-75
2023/09/27 10:12:40;;;;;;;9.10;6.37;;;20.40;67.20;;;;;;5013174;28;20421;-74
2023/09/27 10:15:07;;;;;;;10.87;6.00;;;20.40;67.30;;;;;;5010041;28;20520;-74
2023/09/27 10:17:33;;;;;;;11.50;5.57;;;20.50;67.20;;;;;;5012191;28;20465;-74
2023/09/27 10:20:12;;;;;;;9.97;6.30;;;20.70;66.40;;;;;;5013645;28;20491;-75
2023/09/27 10:22:41;;;;;;;9.07;5.10;;;20.90;65.40;;;;;;5012446;28;20210;-75
2023/09/27 10:25:30;;;;;;;8.43;5.50;;;20.90;65.60;;;;;;5008147;28;20451;-75
2023/09/27 10:28:01;;;;;;;8.13;5.27;;;21.20;65.00;;;;;;5007016;28;20406;-74
2023/09/27 10:30:39;;;;;;;7.43;5.03;;;21.30;65.00;;;;;;5009149;28;20415;-75
2023/09/27 10:33:17;;;;;;;9.67;5.83;;;21.60;64.10;;;;;;5012071;28;20420;-74
2023/09/27 10:35:44;;;;;;;5.67;4.50;;;22.20;62.80;;;;;;5010186;28;20465;-76
2023/09/27 10:38:10;;;;;;;10.23;5.23;;;22.80;61.30;;;;;;5010291;28;20432;-76
2023/09/27 10:40:46;;;;;;;7.63;4.63;;;23.50;61.60;;;;;;5018541;28;20460;-75
2023/09/27 10:43:38;;;;;;;4.63;4.00;;;24.30;60.60;;;;;;5017846;28;20426;-75
2023/09/27 10:46:04;;;;;;;6.93;4.40;;;25.00;59.20;;;;;;4996271;28;20475;-75
2023/09/27 10:48:33;;;;;;;6.60;4.60;;;25.50;58.10;;;;;;5020396;28;20508;-77
2023/09/27 10:50:59;;;;;;;11.87;5.87;;;26.00;57.00;;;;;;5021384;28;20469;-77
2023/09/27 10:53:26;;;;;;;7.90;3.97;;;26.30;55.40;;;;;;5013744;28;20428;-75
2023/09/27 10:55:52;;;;;;;6.50;3.97;;;26.50;55.70;;;;;;5010709;28;20576;-74
2023/09/27 10:58:18;;;;;;;5.80;3.87;;;26.90;54.80;;;;;;5002924;28;20431;-74
2023/09/27 11:00:55;;;;;;;4.57;3.40;;;27.30;53.20;;;;;;5015075;28;20487;-76
2023/09/27 11:03:21;;;;;;;6.60;3.83;;;27.60;51.20;;;;;;5017406;28;20913;-75
2023/09/27 11:05:47;;;;;;;5.13;4.00;;;27.80;51.60;;;;;;5015471;28;20828;-74
2023/09/27 11:08:23;;;;;;;4.90;3.70;;;27.90;50.90;;;;;;5016646;28;20434;-76
2023/09/27 11:10:52;;;;;;;4.60;3.90;;;27.80;51.20;;;;;;5014896;28;20428;-76
2023/09/27 11:13:18;;;;;;;5.00;4.00;;;27.60;51.00;;;;;;5014617;28;20437;-75
2023/09/27 11:15:44;;;;;;;5.30;4.50;;;27.40;52.20;;;;;;5011289;28;20553;-76
2023/09/27 11:18:10;;;;;;;6.00;4.23;;;27.40;52.50;;;;;;5013656;28;21258;-76
2023/09/27 11:20:37;;;;;;;5.57;4.23;;;27.50;52.60;;;;;;5013937;28;20694;-76
2023/09/27 11:23:03;;;;;;;8.70;5.13;;;27.40;52.20;;;;;;5005041;28;20429;-75
2023/09/27 11:25:33;;;;;;;4.90;3.83;;;27.00;52.40;;;;;;5012856;28;20475;-76
2023/09/27 11:28:00;;;;;;;7.30;4.47;;;26.50;53.70;;;;;;5015611;28;20425;-74
2023/09/27 11:30:30;;;;;;;10.07;4.37;;;26.30;54.10;;;;;;4999583;28;20575;-76
2023/09/27 11:32:56;;;;;;;6.37;4.13;;;25.90;54.40;;;;;;5014195;28;20431;-76
2023/09/27 11:35:24;;;;;;;6.40;4.63;;;25.90;54.50;;;;;;5010396;28;20503;-76
2023/09/27 11:38:07;;;;;;;9.30;3.73;;;25.90;54.90;;;;;;5013165;28;20420;-75
2023/09/27 11:40:34;;;;;;;7.40;4.37;;;26.10;53.70;;;;;;5010230;28;21032;-74
2023/09/27 11:43:01;;;;;;;5.03;3.83;;;26.20;54.10;;;;;;5016461;28;20535;-74
2023/09/27 11:45:26;;;;;;;6.40;4.70;;;26.30;53.30;;;;;;5012439;28;20468;-75
2023/09/27 11:47:52;;;;;;;4.60;3.87;;;26.70;52.80;;;;;;5015687;28;20456;-76
2023/09/27 11:50:22;;;;;;;3.93;3.40;;;26.90;51.00;;;;;;5017809;28;20712;-75
2023/09/27 11:52:48;;;;;;;6.20;4.50;;;27.00;51.20;;;;;;5018791;28;20264;-75
2023/09/27 11:55:14;;;;;;;5.20;3.30;;;27.20;49.90;;;;;;5012664;28;20516;-75
2023/09/27 11:57:40;;;;;;;5.27;3.67;;;27.00;49.90;;;;;;5015927;28;20421;-76
2023/09/27 12:00:08;;;;;;;7.70;3.47;;;26.70;50.50;;;;;;5016002;28;20487;-75
2023/09/27 12:02:37;;;;;;;4.07;3.50;;;26.50;51.00;;;;;;5017128;28;20489;-76
2023/09/27 12:05:06;;;;;;;4.33;3.40;;;26.60;50.90;;;;;;5013791;28;20530;-76
2023/09/27 12:07:32;;;;;;;6.73;4.47;;;27.10;49.90;;;;;;5013949;28;20417;-74
2023/09/27 12:09:58;;;;;;;5.00;4.17;;;27.20;49.90;;;;;;5016380;28;20890;-74
2023/09/27 12:12:23;;;;;;;7.20;4.00;;;27.60;49.10;;;;;;5016519;28;20441;-75
2023/09/27 12:14:51;;;;;;;4.80;3.30;;;27.90;48.50;;;;;;5012739;28;20178;-75
2023/09/27 12:17:17;;;;;;;5.73;3.63;;;28.20;48.10;;;;;;5012145;28;20186;-76
2023/09/27 12:19:45;;;;;;;6.43;3.33;;;28.60;46.70;;;;;;5013719;28;20424;-76
2023/09/27 12:22:11;;;;;;;6.13;3.60;;;28.90;46.50;;;;;;5012819;28;20225;-76
2023/09/27 12:24:37;;;;;;;3.90;3.30;;;29.30;44.90;;;;;;5013433;28;20424;-76
2023/09/27 12:27:02;;;;;;;6.50;3.60;;;29.50;45.10;;;;;;5010800;28;20449;-75
2023/09/27 12:29:29;;;;;;;8.60;3.83;;;29.60;44.50;;;;;;5013344;28;20236;-76
2023/09/27 12:31:54;;;;;;;8.07;4.03;;;29.60;43.80;;;;;;5011989;28;20655;-76
2023/09/27 12:34:20;;;;;;;4.20;3.40;;;29.70;44.60;;;;;;5012480;28;20437;-75
2023/09/27 12:36:47;;;;;;;4.00;3.10;;;29.70;44.90;;;;;;5009690;28;20202;-77
2023/09/27 12:39:13;;;;;;;7.03;3.83;;;29.90;44.20;;;;;;5014155;28;20178;-75